createdAt,value
2023-03-23T16:00:32.349Z,64.02
2023-03-23T16:03:09.891Z,64.10
2023-03-23T16:05:42.679Z,64.16
2023-03-23T16:08:15.138Z,63.96
2023-03-23T16:10:45.846Z,64.09
2023-03-23T16:13:16.691Z,64.15
2023-03-23T16:15:56.759Z,64.09
2023-03-23T16:18:27.927Z,64.14
2023-03-23T16:20:59.479Z,64.15
2023-03-23T16:23:30.139Z,64.01
2023-03-23T16:26:02.104Z,64.00
2023-03-23T16:28:32.689Z,64.10
2023-03-23T16:31:10.406Z,64.13
2023-03-23T16:33:42.889Z,63.98
2023-03-23T16:36:16.193Z,63.97
2023-03-23T16:38:48.996Z,64.08
2023-03-23T16:41:23.077Z,64.04
2023-03-23T16:43:57.666Z,64.16
2023-03-23T16:46:33.700Z,64.04
2023-03-23T16:49:05.593Z,63.93
2023-03-23T16:52:09.677Z,64.12
2023-03-23T16:54:43.135Z,64.20
2023-03-23T16:57:14.208Z,64.22
2023-03-23T16:59:45.132Z,64.22
2023-03-23T17:02:15.820Z,64.22
2023-03-23T17:04:48.370Z,64.14
2023-03-23T17:07:56.950Z,64.17
2023-03-23T17:10:29.505Z,64.16
2023-03-23T17:13:00.867Z,64.13
2023-03-23T17:15:31.498Z,64.16
2023-03-23T17:19:07.924Z,64.18
2023-03-23T17:21:41.086Z,64.14
2023-03-23T17:24:12.778Z,64.28
2023-03-23T17:26:43.217Z,64.29
2023-03-23T17:29:14.133Z,64.29
2023-03-23T17:31:47.179Z,64.20
2023-03-23T17:34:19.894Z,64.22
2023-03-23T17:36:51.412Z,64.24
2023-03-23T17:39:22.726Z,64.13
2023-03-23T17:41:54.157Z,64.26
2023-03-23T17:44:26.063Z,64.34
2023-03-23T17:46:57.875Z,64.29
2023-03-23T17:49:33.982Z,64.43
2023-03-23T17:52:07.157Z,64.42
2023-03-23T17:54:38.389Z,64.49
2023-03-23T17:57:09.489Z,64.39
2023-03-23T17:59:43.432Z,64.46
2023-03-23T18:02:20.289Z,64.45
2023-03-23T18:05:10.083Z,64.45
2023-03-23T18:07:46.399Z,64.49
2023-03-23T18:10:18.650Z,64.51
2023-03-23T18:12:52.374Z,64.38
2023-03-23T18:15:28.413Z,64.49
2023-03-23T18:18:04.062Z,64.53
2023-03-23T18:20:36.149Z,64.58
2023-03-23T18:23:08.567Z,64.70
2023-03-23T18:25:40.521Z,64.68
2023-03-23T18:28:14.351Z,64.88
2023-03-23T18:30:52.591Z,64.93
2023-03-23T18:33:27.210Z,65.06
2023-03-23T18:36:01.867Z,65.00
2023-03-23T18:38:37.549Z,65.00
2023-03-23T18:41:12.110Z,64.94
2023-03-23T18:43:47.527Z,64.95
2023-03-23T18:46:19.751Z,64.81
2023-03-23T18:48:52.312Z,64.92
2023-03-23T18:51:25.053Z,64.94
2023-03-23T18:53:58.401Z,64.97
2023-03-23T18:56:34.939Z,64.96
2023-03-23T18:59:10.419Z,65.05
2023-03-23T19:02:15.552Z,64.99
2023-03-23T19:04:55.369Z,64.98
2023-03-23T19:07:29.674Z,64.98
2023-03-23T19:11:09.112Z,65.09
2023-03-23T19:13:50.746Z,64.88
2023-03-23T19:16:28.692Z,64.90
2023-03-23T19:19:03.178Z,64.96
2023-03-23T19:24:13.942Z,64.82
2023-03-23T19:26:56.626Z,64.77
2023-03-23T19:29:40.299Z,64.85
2023-03-23T19:32:20.108Z,65.01
2023-03-23T19:34:53.794Z,64.92
2023-03-23T19:37:34.350Z,65.02
2023-03-23T19:40:26.718Z,64.93
2023-03-23T19:43:06.869Z,64.90
2023-03-23T19:45:40.351Z,65.03
2023-03-23T19:48:16.420Z,65.05
2023-03-23T19:50:52.696Z,65.03
2023-03-23T19:53:27.649Z,64.93
2023-03-23T19:56:11.140Z,64.81
2023-03-23T19:58:50.271Z,64.90
2023-03-23T20:01:56.512Z,64.91
2023-03-23T20:04:33.352Z,64.85
2023-03-23T20:07:12.323Z,64.77
2023-03-23T20:09:52.549Z,64.85
2023-03-23T20:12:31.073Z,64.93
2023-03-23T20:15:19.998Z,65.10
2023-03-23T20:17:58.363Z,64.96
2023-03-23T20:20:32.336Z,64.98
2023-03-23T20:23:08.952Z,64.93
2023-03-23T20:25:41.298Z,65.00
2023-03-23T20:28:16.716Z,65.03
2023-03-23T20:31:16.913Z,65.01
2023-03-23T20:33:49.076Z,65.00
2023-03-23T20:36:46.382Z,65.07
2023-03-23T20:39:23.948Z,65.07
2023-03-23T20:41:59.801Z,65.03
2023-03-23T20:44:36.990Z,64.90
2023-03-23T20:47:10.985Z,64.50
2023-03-23T20:50:55.966Z,64.95
2023-03-23T20:53:33.612Z,65.05
2023-03-23T20:56:09.743Z,65.20
2023-03-23T20:58:44.706Z,65.52
2023-03-23T21:01:18.017Z,65.68
2023-03-23T21:03:54.972Z,66.17
2023-03-23T21:06:34.543Z,66.22
2023-03-23T21:09:07.200Z,66.36
2023-03-23T21:11:40.755Z,66.40
2023-03-23T21:14:14.210Z,66.41
2023-03-23T21:16:46.141Z,66.60
2023-03-23T21:19:17.758Z,66.77
2023-03-23T21:21:56.653Z,66.72
2023-03-23T21:24:30.002Z,66.75
2023-03-23T21:27:03.973Z,66.80
2023-03-23T21:29:39.152Z,66.80
2023-03-23T21:32:10.671Z,66.75
2023-03-23T21:34:47.905Z,66.72
2023-03-23T21:37:18.381Z,66.80
2023-03-23T21:39:49.421Z,66.83
2023-03-23T21:42:20.027Z,66.82
2023-03-23T21:44:50.521Z,66.70
2023-03-23T21:47:21.293Z,66.94
2023-03-23T21:49:57.061Z,66.93
2023-03-23T21:52:31.264Z,66.94
2023-03-23T21:55:03.739Z,66.85
2023-03-23T21:57:35.490Z,66.80
2023-03-23T22:00:13.074Z,66.91
2023-03-23T22:02:45.335Z,67.02
2023-03-23T22:05:16.079Z,66.95
2023-03-23T22:07:57.228Z,67.10
2023-03-23T22:10:27.850Z,67.04
2023-03-23T22:12:58.674Z,67.21
2023-03-23T22:15:30.057Z,67.26
2023-03-23T22:18:03.141Z,67.12
2023-03-23T22:20:34.274Z,67.05
2023-03-23T22:23:05.280Z,67.12
2023-03-23T22:25:38.032Z,67.15
2023-03-23T22:28:10.100Z,67.19
2023-03-23T22:30:40.692Z,67.34
2023-03-23T22:33:11.269Z,67.51
2023-03-23T22:35:42.350Z,67.31
2023-03-23T22:38:13.078Z,67.41
2023-03-23T22:40:44.220Z,67.23
2023-03-23T22:43:17.493Z,67.30
2023-03-23T22:45:48.271Z,67.17
2023-03-23T22:48:19.337Z,67.34
2023-03-23T22:50:52.544Z,67.46
2023-03-23T22:53:23.877Z,67.28
2023-03-23T22:55:56.705Z,67.42
2023-03-23T22:58:29.411Z,67.43
2023-03-23T23:01:03.918Z,67.45
2023-03-23T23:03:38.444Z,67.52
2023-03-23T23:06:09.990Z,67.47
2023-03-23T23:08:41.782Z,67.39
2023-03-23T23:11:16.648Z,67.52
2023-03-23T23:13:50.567Z,67.38
2023-03-23T23:16:23.937Z,67.59
2023-03-23T23:18:55.147Z,67.67
2023-03-23T23:21:29.303Z,67.85
2023-03-23T23:23:59.747Z,67.72
2023-03-23T23:26:31.954Z,67.94
2023-03-23T23:29:03.306Z,67.88
2023-03-23T23:31:35.060Z,67.86
2023-03-23T23:34:06.911Z,67.84
2023-03-23T23:36:38.056Z,67.95
2023-03-23T23:39:08.867Z,68.07
2023-03-23T23:41:40.233Z,68.03
2023-03-23T23:44:12.272Z,68.14
2023-03-23T23:46:43.128Z,67.98
2023-03-23T23:49:14.043Z,68.09
2023-03-23T23:51:45.060Z,67.92
2023-03-23T23:54:23.010Z,68.05
2023-03-23T23:56:53.617Z,68.06
2023-03-23T23:59:24.344Z,68.24
